.
WxDataArchive / Data Records for 2012-04-12
2012-04-11 April 2012 2012-04-13

Data Records for Thursday, 12 April 2012

Time	Temp	Chill	HIndex	Humid	Dewpt	 Wind 	HiWind	WindDir	Rain 	Barom 
-----	----	-----	------	-----	-----	------	------	-------	-----	----- 
00:00	40.6	40.6	40.6	64	29.4	0	0	---	0.00	30.238 
00:05	40.5	40.5	40.5	64	29.3	0	0	---	0.00	30.238 
00:10	40.1	40.1	40.1	65	29.3	0	0	---	0.00	30.238 
00:15	39.8	39.8	39.8	65	29.0	0	0	---	0.00	30.237 
00:20	39.8	39.8	39.8	65	29.0	0	0	---	0.00	30.237 
00:25	39.9	39.9	39.9	65	29.1	0	0	---	0.00	30.237 
00:30	39.8	39.8	39.8	65	29.0	0	0	---	0.00	30.238 
00:35	39.5	39.5	39.5	65	28.7	0	0	---	0.00	30.238 
00:40	39.3	39.3	39.3	66	28.9	0	0	---	0.00	30.238 
00:45	39.1	39.1	39.1	66	28.7	0	0	---	0.00	30.236 
00:50	38.8	38.8	38.8	67	28.8	0	0	---	0.00	30.236 
00:55	38.5	38.5	38.5	67	28.5	0	0	---	0.00	30.236 
01:00	38.0	38.0	38.0	68	28.4	0	0	---	0.00	30.237 
01:05	37.8	37.8	37.8	69	28.6	0	0	---	0.00	30.237 
01:10	37.3	37.3	37.3	69	28.1	0	0	---	0.00	30.237 
01:15	37.0	37.0	37.0	70	28.1	0	0	---	0.00	30.233 
01:20	36.9	36.9	36.9	70	28.0	0	0	---	0.00	30.233 
01:25	36.6	36.6	36.6	71	28.1	0	0	---	0.00	30.233 
01:30	36.5	36.5	36.5	71	28.0	0	0	---	0.00	30.229 
01:35	36.2	36.2	36.2	71	27.7	0	0	---	0.00	30.229 
01:40	36.0	36.0	36.0	71	27.5	0	0	---	0.00	30.229 
01:45	35.9	35.9	35.9	72	27.8	0	0	---	0.00	30.225 
01:50	35.8	35.8	35.8	73	28.0	0	0	---	0.00	30.225 
01:55	35.8	35.8	35.8	73	28.0	0	0	---	0.00	30.225 
02:00	35.8	35.8	35.8	73	28.0	0	0	---	0.00	30.223 
02:05	35.8	35.8	35.8	73	28.0	0	0	---	0.00	30.223 
02:10	35.8	35.8	35.8	73	28.0	0	0	---	0.00	30.223 
02:15	35.8	35.8	35.8	73	28.0	0	0	---	0.00	30.218 
02:20	35.6	35.6	35.6	73	27.8	0	0	---	0.00	30.218 
02:25	35.5	35.5	35.5	73	27.7	0	0	---	0.00	30.218 
02:30	35.3	35.3	35.3	73	27.5	0	0	---	0.00	30.216 
02:35	35.0	35.0	35.0	73	27.2	0	0	---	0.00	30.216 
02:40	34.9	34.9	34.9	73	27.1	0	0	---	0.00	30.216 
02:45	34.7	34.7	34.7	74	27.3	0	0	---	0.00	30.212 
02:50	34.4	34.4	34.4	74	27.0	0	0	---	0.00	30.212 
02:55	34.3	34.3	34.3	75	27.2	0	0	---	0.00	30.212 
03:00	34.0	34.0	34.0	75	26.9	0	0	---	0.00	30.211 
03:05	33.8	33.8	33.8	76	27.1	0	0	---	0.00	30.211 
03:10	33.8	33.8	33.8	76	27.1	0	0	---	0.00	30.211 
03:15	33.7	33.7	33.7	76	27.0	0	0	---	0.00	30.212 
03:20	33.7	33.7	33.7	77	27.3	0	0	---	0.00	30.212 
03:25	33.5	33.5	33.5	77	27.1	0	0	---	0.00	30.212 
03:30	33.5	33.5	33.5	77	27.1	0	0	---	0.00	30.215 
03:35	33.5	33.5	33.5	77	27.1	0	0	---	0.00	30.215 
03:40	33.7	33.7	33.7	77	27.3	0	0	---	0.00	30.215 
03:45	33.8	33.8	33.8	77	27.4	0	0	---	0.00	30.222 
03:50	33.8	33.8	33.8	77	27.4	0	0	---	0.00	30.222 
03:55	33.8	33.8	33.8	77	27.4	0	1	315	0.00	30.222 
04:00	34.0	34.0	34.0	76	27.2	0	1	315	0.00	30.222 
04:05	34.0	34.0	34.0	76	27.2	0	1	315	0.00	30.222 
04:10	34.1	34.1	34.1	75	27.0	0	1	315	0.00	30.222 
04:15	34.1	34.1	34.1	75	27.0	0	0	---	0.00	30.225 
04:20	34.0	34.0	34.0	75	26.9	0	1	315	0.00	30.225 
04:25	34.0	34.0	34.0	75	26.9	0	1	315	0.00	30.225 
04:30	34.0	34.0	34.0	75	26.9	0	1	315	0.00	30.230 
04:35	34.0	34.0	34.0	75	26.9	0	0	---	0.00	30.230 
04:40	34.0	34.0	34.0	75	26.9	0	1	315	0.00	30.230 
04:45	33.8	33.8	33.8	75	26.7	0	1	315	0.00	30.232 
04:50	33.8	33.8	33.8	75	26.7	0	1	315	0.00	30.232 
04:55	33.8	33.8	33.8	75	26.7	0	0	---	0.00	30.232 
05:00	33.7	33.7	33.7	75	26.6	0	0	---	0.00	30.237 
05:05	33.5	33.5	33.5	75	26.4	0	0	---	0.00	30.237 
05:10	33.5	33.5	33.5	75	26.4	0	0	---	0.00	30.237 
05:15	33.4	33.4	33.4	76	26.7	0	0	---	0.00	30.239 
05:20	33.2	33.2	33.2	76	26.5	0	0	---	0.00	30.239 
05:25	33.2	33.2	33.2	76	26.5	0	0	---	0.00	30.239 
05:30	33.1	33.1	33.1	76	26.4	0	0	---	0.00	30.238 
05:35	33.1	33.1	33.1	77	26.7	0	0	---	0.00	30.238 
05:40	32.9	32.9	32.9	77	26.5	0	0	---	0.00	30.238 
05:45	32.8	32.8	32.8	77	26.4	0	0	---	0.00	30.238 
05:50	32.7	32.7	32.7	77	26.3	0	0	---	0.00	30.238 
05:55	32.4	32.4	32.4	77	26.0	0	0	---	0.00	30.238 
06:00	32.2	32.2	32.2	77	25.8	0	0	---	0.00	30.239 
06:05	31.9	31.9	31.9	77	25.5	0	0	---	0.00	30.239 
06:10	31.6	31.6	31.6	77	25.2	0	0	---	0.00	30.239 
06:15	31.5	31.5	31.5	77	25.1	0	0	---	0.00	30.240 
06:20	31.2	31.2	31.2	78	25.2	0	0	---	0.00	30.240 
06:25	30.9	30.9	30.9	78	24.9	0	0	---	0.00	30.240 
06:30	30.7	30.7	30.7	79	25.0	0	0	---	0.00	30.243 
06:35	30.4	30.4	30.4	80	25.0	0	0	---	0.00	30.243 
06:40	30.1	30.1	30.1	81	25.0	0	0	---	0.00	30.243 
06:45	30.0	30.0	30.0	81	24.9	0	0	---	0.00	30.250 
06:50	29.7	29.7	29.7	82	24.9	0	0	---	0.00	30.250 
06:55	29.5	29.5	29.5	82	24.7	0	0	---	0.00	30.250 
07:00	29.4	29.4	29.4	82	24.6	0	0	---	0.00	30.253 
07:05	29.3	29.3	29.3	83	24.8	0	0	---	0.00	30.253 
07:10	29.3	29.3	29.3	83	24.8	0	0	---	0.00	30.253 
07:15	29.3	29.3	29.3	84	25.1	0	0	---	0.00	30.260 
07:20	29.3	29.3	29.3	84	25.1	0	0	---	0.00	30.260 
07:25	29.4	29.4	29.4	85	25.5	0	0	---	0.00	30.260 
07:30	29.7	29.7	29.7	85	25.8	0	0	---	0.00	30.259 
07:35	30.0	30.0	30.0	86	26.3	0	0	---	0.00	30.259 
07:40	30.4	30.4	30.4	86	26.7	0	1	315	0.00	30.259 
07:45	30.9	30.9	30.9	86	27.2	0	0	---	0.00	30.261 
07:50	31.3	31.3	31.3	86	27.6	0	1	315	0.00	30.261 
07:55	31.9	31.9	31.9	86	28.2	0	0	---	0.00	30.261 
08:00	32.5	32.5	32.5	85	28.5	0	1	315	0.00	30.270 
08:05	32.9	32.9	32.9	85	28.9	0	1	315	0.00	30.270 
08:10	33.5	33.5	33.5	84	29.2	0	2	315	0.00	30.270 
08:15	34.1	34.1	34.1	83	29.5	0	2	315	0.00	30.277 
08:20	34.6	34.6	34.6	82	29.7	0	2	315	0.00	30.277 
08:25	35.0	35.0	35.0	81	29.8	0	2	315	0.00	30.277 
08:30	35.6	35.6	35.6	80	30.1	0	1	315	0.00	30.276 
08:35	35.9	35.9	35.9	79	30.0	0	1	315	0.00	30.276 
08:40	36.5	36.5	36.5	78	30.3	0	1	315	0.00	30.276 
08:45	36.9	36.9	36.9	78	30.7	0	1	315	0.00	30.282 
08:50	37.3	37.3	37.3	77	30.8	0	1	315	0.00	30.282 
08:55	37.8	37.8	37.8	76	30.9	0	2	315	0.00	30.282 
09:00	38.3	38.3	38.3	75	31.1	0	1	315	0.00	30.288 
09:05	38.8	38.8	38.8	74	31.2	0	3	315	0.00	30.288 
09:10	39.2	39.2	39.2	73	31.3	0	3	315	0.00	30.288 
09:15	39.9	39.9	39.9	71	31.3	0	2	315	0.00	30.284 
09:20	40.6	40.6	40.6	70	31.6	0	2	315	0.00	30.284 
09:25	41.2	41.2	41.2	69	31.8	0	1	315	0.00	30.284 
09:30	41.8	41.8	41.8	67	31.7	1	3	315	0.00	30.285 
09:35	42.2	42.2	42.2	64	30.9	0	2	315	0.00	30.285 
09:40	42.5	42.5	42.5	65	31.6	0	2	315	0.00	30.285 
09:45	42.9	42.9	42.9	64	31.6	0	1	315	0.00	30.282 
09:50	43.3	43.3	43.3	63	31.6	0	2	315	0.00	30.282 
09:55	43.9	43.9	43.9	63	32.1	1	2	315	0.00	30.282 
10:00	44.3	44.3	44.3	61	31.7	0	2	315	0.00	30.282 
10:05	44.6	44.6	44.6	61	32.0	0	3	315	0.00	30.282 
10:10	45.2	45.2	45.2	61	32.6	1	3	315	0.00	30.282 
10:15	45.7	45.7	45.7	58	31.8	1	3	315	0.00	30.279 
10:20	46.1	46.1	46.1	56	31.3	1	3	315	0.00	30.279 
10:25	46.5	46.5	46.5	57	32.1	1	2	315	0.00	30.279 
10:30	46.8	46.8	46.8	54	31.0	1	3	315	0.00	30.279 
10:35	47.3	47.3	47.3	54	31.5	1	5	315	0.00	30.279 
10:40	47.0	47.0	47.0	54	31.2	1	3	270	0.00	30.279 
10:45	47.6	47.6	47.6	54	31.8	1	3	270	0.00	30.270 
10:50	47.9	47.9	47.9	52	31.1	1	4	270	0.00	30.270 
10:55	48.3	48.3	48.3	52	31.5	1	3	270	0.00	30.270 
11:00	48.5	48.5	48.5	51	31.2	1	3	270	0.00	30.268 
11:05	48.8	48.8	48.8	51	31.5	1	3	270	0.00	30.268 
11:10	48.9	48.9	48.9	48	30.1	2	5	338	0.00	30.268 
11:15	48.6	48.6	48.6	49	30.3	1	4	315	0.00	30.267 
11:20	48.9	48.9	48.9	48	30.1	1	3	0	0.00	30.267 
11:25	49.2	49.2	49.2	50	31.4	1	5	315	0.00	30.267 
11:30	49.6	49.6	49.6	49	31.2	0	2	270	0.00	30.267 
11:35	49.9	49.9	49.9	45	29.4	1	4	270	0.00	30.267 
11:40	50.2	50.2	50.2	46	30.2	1	4	338	0.00	30.267 
11:45	50.4	50.4	50.4	43	28.8	1	4	270	0.00	30.264 
11:50	50.5	50.5	50.5	42	28.3	1	4	270	0.00	30.264 
11:55	51.1	51.1	51.1	43	29.4	1	4	270	0.00	30.264 
12:00	51.3	51.3	51.3	41	28.4	1	3	315	0.00	30.254 
12:05	51.7	51.7	51.7	40	28.2	1	3	315	0.00	30.254 
12:10	52.0	52.0	52.0	42	29.6	1	3	315	0.00	30.254 
12:15	52.6	52.6	52.6	40	29.0	1	3	315	0.00	30.253 
12:20	52.9	52.9	52.9	39	28.6	1	4	0	0.00	30.253 
12:25	53.2	53.2	53.2	39	28.9	1	3	270	0.00	30.253 
12:30	52.9	52.9	52.9	38	28.0	2	4	315	0.00	30.252 
12:35	53.1	53.1	53.1	39	28.8	2	5	270	0.00	30.252 
12:40	53.2	53.2	53.2	39	28.9	1	5	0	0.00	30.252 
12:45	53.6	53.6	53.6	39	29.3	1	4	315	0.00	30.247 
12:50	53.8	53.8	53.8	39	29.4	1	3	292	0.00	30.247 
12:55	54.1	54.1	54.1	36	27.7	1	3	22	0.00	30.247 
13:00	54.5	54.5	54.5	42	31.9	0	2	22	0.00	30.237 
13:05	55.1	55.1	55.1	38	30.0	2	4	270	0.00	30.237 
13:10	55.3	55.3	55.3	39	30.8	2	4	292	0.00	30.237 
13:15	55.7	55.7	55.7	39	31.1	1	2	45	0.00	30.233 
13:20	55.6	55.6	55.6	36	29.1	2	7	248	0.00	30.233 
13:25	55.3	55.3	55.3	37	29.5	2	7	338	0.00	30.233 
13:30	55.4	55.4	55.4	39	30.9	2	4	292	0.00	30.224 
13:35	55.4	55.4	55.4	36	28.9	1	3	270	0.00	30.224 
13:40	55.7	55.7	55.7	40	31.8	1	4	270	0.00	30.224 
13:45	56.0	56.0	56.0	44	34.4	1	4	315	0.00	30.219 
13:50	56.0	56.0	56.0	35	28.7	2	9	315	0.00	30.219 
13:55	56.0	56.0	56.0	38	30.8	1	5	270	0.00	30.219 
14:00	56.2	56.2	56.2	38	30.9	1	4	315	0.00	30.218 
14:05	56.3	56.3	56.3	40	32.3	2	7	292	0.00	30.218 
14:10	56.5	56.5	56.5	36	29.9	2	5	248	0.00	30.218 
14:15	56.5	56.5	56.5	38	31.2	1	3	338	0.00	30.213 
14:20	56.9	56.9	56.9	37	30.9	1	3	0	0.00	30.213 
14:25	57.2	57.2	57.2	35	29.8	1	3	0	0.00	30.213 
14:30	57.2	57.2	57.2	36	30.5	1	4	292	0.00	30.205 
14:35	57.2	57.2	57.2	35	29.8	1	3	292	0.00	30.205 
14:40	57.6	57.6	57.6	37	31.5	1	4	270	0.00	30.205 
14:45	57.8	57.8	57.8	38	32.4	1	4	292	0.00	30.198 
14:50	57.5	57.5	57.5	35	30.1	1	3	338	0.00	30.198 
14:55	57.5	57.5	57.5	39	32.7	0	1	338	0.00	30.198 
15:00	58.1	58.1	58.1	35	30.6	1	2	338	0.00	30.190 
15:05	58.0	58.0	58.0	35	30.5	1	4	338	0.00	30.190 
15:10	58.0	58.0	58.0	34	29.8	2	5	270	0.00	30.190 
15:15	57.8	57.8	57.8	34	29.6	1	4	0	0.00	30.186 
15:20	57.8	57.8	57.8	34	29.6	0	3	22	0.00	30.186 
15:25	58.0	58.0	58.0	33	29.1	2	5	270	0.00	30.186 
15:30	57.8	57.8	57.8	33	28.9	1	2	292	0.00	30.175 
15:35	57.6	57.6	57.6	32	28.0	1	3	315	0.00	30.175 
15:40	57.8	57.8	57.8	35	30.3	1	6	292	0.00	30.175 
15:45	57.8	57.8	57.8	32	28.1	1	4	292	0.00	30.172 
15:50	58.0	58.0	58.0	32	28.3	1	4	292	0.00	30.172 
15:55	58.4	58.4	58.4	31	27.9	1	6	292	0.00	30.172 
16:00	58.3	58.3	58.3	30	27.0	2	4	292	0.00	30.167 
16:05	58.3	58.3	58.3	34	30.1	1	4	292	0.00	30.167 
16:10	58.3	58.3	58.3	30	27.0	1	4	292	0.00	30.167 
16:15	58.4	58.4	58.4	34	30.1	0	1	292	0.00	30.158 
16:20	58.3	58.3	58.3	32	28.6	1	3	0	0.00	30.158 
16:25	58.3	58.3	58.3	32	28.6	1	3	270	0.00	30.158 
16:30	58.1	58.1	58.1	32	28.4	1	4	202	0.00	30.156 
16:35	58.1	58.1	58.1	32	28.4	1	3	292	0.00	30.156 
16:40	58.1	58.1	58.1	32	28.4	1	3	292	0.00	30.156 
16:45	57.8	57.8	57.8	31	27.4	1	3	338	0.00	30.156 
16:50	58.0	58.0	58.0	35	30.5	1	5	315	0.00	30.156 
16:55	57.6	57.6	57.6	33	28.7	1	4	248	0.00	30.156 
17:00	57.0	57.0	57.0	33	28.2	0	3	248	0.00	30.158 
17:05	56.9	56.9	56.9	35	29.5	1	4	248	0.00	30.158 
17:10	57.0	57.0	57.0	36	30.3	0	2	248	0.00	30.158 
17:15	57.3	57.3	57.3	35	29.9	0	3	292	0.00	30.157 
17:20	57.8	57.8	57.8	35	30.3	1	3	315	0.00	30.157 
17:25	57.2	57.2	57.2	34	29.1	1	4	270	0.00	30.157 
17:30	57.2	57.2	57.2	35	29.8	1	3	0	0.00	30.155 
17:35	57.2	57.2	57.2	34	29.1	0	2	0	0.00	30.155 
17:40	57.3	57.3	57.3	34	29.2	1	4	270	0.00	30.155 
17:45	57.3	57.3	57.3	32	27.7	0	2	338	0.00	30.157 
17:50	57.5	57.5	57.5	35	30.1	0	2	338	0.00	30.157 
17:55	57.5	57.5	57.5	33	28.6	0	2	338	0.00	30.157 
18:00	57.3	57.3	57.3	33	28.4	2	4	292	0.00	30.158 
18:05	57.2	57.2	57.2	33	28.4	1	3	270	0.00	30.158 
18:10	57.0	57.0	57.0	34	28.9	0	1	270	0.00	30.158 
18:15	56.7	56.7	56.7	34	28.7	0	1	270	0.00	30.160 
18:20	56.5	56.5	56.5	35	29.2	0	1	270	0.00	30.160 
18:25	56.3	56.3	56.3	36	29.7	0	2	270	0.00	30.160 
18:30	56.2	56.2	56.2	35	28.9	1	4	270	0.00	30.162 
18:35	56.3	56.3	56.3	35	29.0	0	1	270	0.00	30.162 
18:40	56.3	56.3	56.3	34	28.3	0	3	315	0.00	30.162 
18:45	56.3	56.3	56.3	36	29.7	0	2	315	0.00	30.161 
18:50	56.6	56.6	56.6	34	28.6	0	2	315	0.00	30.161 
18:55	56.7	56.7	56.7	34	28.7	1	3	315	0.00	30.161 
19:00	56.7	56.7	56.7	34	28.7	1	3	315	0.00	30.160 
19:05	56.7	56.7	56.7	34	28.7	1	3	315	0.00	30.160 
19:10	56.5	56.5	56.5	35	29.2	1	4	270	0.00	30.160 
19:15	56.0	56.0	56.0	35	28.7	0	2	315	0.00	30.159 
19:20	55.6	55.6	55.6	36	29.1	0	1	315	0.00	30.159 
19:25	55.1	55.1	55.1	36	28.6	0	1	315	0.00	30.159 
19:30	54.8	54.8	54.8	36	28.4	0	1	315	0.00	30.161 
19:35	54.7	54.7	54.7	37	28.9	0	1	315	0.00	30.161 
19:40	54.5	54.5	54.5	37	28.8	0	1	315	0.00	30.161 
19:45	54.2	54.2	54.2	37	28.5	0	1	315	0.00	30.163 
19:50	54.1	54.1	54.1	38	29.1	0	1	315	0.00	30.163 
19:55	53.9	53.9	53.9	39	29.5	0	1	315	0.00	30.163 
20:00	53.6	53.6	53.6	40	29.9	0	0	---	0.00	30.169 
20:05	53.5	53.5	53.5	40	29.8	0	0	---	0.00	30.169 
20:10	53.2	53.2	53.2	40	29.5	0	0	---	0.00	30.169 
20:15	52.8	52.8	52.8	41	29.8	0	0	---	0.00	30.169 
20:20	52.5	52.5	52.5	41	29.5	0	0	---	0.00	30.169 
20:25	52.2	52.2	52.2	42	29.8	0	0	---	0.00	30.169 
20:30	51.9	51.9	51.9	43	30.1	0	0	---	0.00	30.172 
20:35	51.6	51.6	51.6	43	29.8	0	0	---	0.00	30.172 
20:40	51.3	51.3	51.3	44	30.1	0	0	---	0.00	30.172 
20:45	51.1	51.1	51.1	44	30.0	0	0	---	0.00	30.175 
20:50	51.0	51.0	51.0	45	30.4	0	0	---	0.00	30.175 
20:55	50.8	50.8	50.8	46	30.8	0	0	---	0.00	30.175 
21:00	50.5	50.5	50.5	46	30.5	0	0	---	0.00	30.176 
21:05	50.2	50.2	50.2	46	30.2	0	0	---	0.00	30.176 
21:10	49.9	49.9	49.9	48	31.0	0	0	---	0.00	30.176 
21:15	49.5	49.5	49.5	50	31.6	0	0	---	0.00	30.178 
21:20	49.1	49.1	49.1	50	31.3	0	0	---	0.00	30.178 
21:25	48.8	48.8	48.8	51	31.5	0	0	---	0.00	30.178 
21:30	48.3	48.3	48.3	52	31.5	0	0	---	0.00	30.186 
21:35	47.9	47.9	47.9	53	31.6	0	0	---	0.00	30.186 
21:40	47.6	47.6	47.6	52	30.9	0	0	---	0.00	30.186 
21:45	47.9	47.9	47.9	50	30.2	0	1	315	0.00	30.190 
21:50	48.5	48.5	48.5	49	30.2	0	2	315	0.00	30.190 
21:55	48.9	48.9	48.9	48	30.1	0	1	315	0.00	30.190 
22:00	49.1	49.1	49.1	47	29.7	0	1	315	0.00	30.200 
22:05	48.9	48.9	48.9	47	29.6	0	0	---	0.00	30.200 
22:10	48.8	48.8	48.8	47	29.5	0	0	---	0.00	30.200 
22:15	48.6	48.6	48.6	47	29.3	0	0	---	0.00	30.197 
22:20	48.5	48.5	48.5	48	29.7	0	0	---	0.00	30.197 
22:25	48.2	48.2	48.2	48	29.4	0	0	---	0.00	30.197 
22:30	48.0	48.0	48.0	48	29.3	0	0	---	0.00	30.195 
22:35	47.7	47.7	47.7	49	29.5	0	0	---	0.00	30.195 
22:40	47.6	47.6	47.6	48	28.9	0	0	---	0.00	30.195 
22:45	47.4	47.4	47.4	48	28.7	0	0	---	0.00	30.198 
22:50	47.3	47.3	47.3	49	29.1	0	0	---	0.00	30.198 
22:55	47.0	47.0	47.0	49	28.8	0	0	---	0.00	30.198 
23:00	46.7	46.7	46.7	50	29.1	0	0	---	0.00	30.199 
23:05	46.2	46.2	46.2	50	28.6	0	0	---	0.00	30.199 
23:10	46.0	46.0	46.0	51	28.9	0	0	---	0.00	30.199 
23:15	45.7	45.7	45.7	52	29.1	0	0	---	0.00	30.199 
23:20	45.4	45.4	45.4	52	28.8	0	0	---	0.00	30.199 
23:25	45.1	45.1	45.1	53	29.0	0	0	---	0.00	30.199 
23:30	44.6	44.6	44.6	54	29.0	0	0	---	0.00	30.200 
23:35	44.3	44.3	44.3	55	29.2	0	0	---	0.00	30.200 
23:40	44.1	44.1	44.1	56	29.4	0	0	---	0.00	30.200 
23:45	43.6	43.6	43.6	56	29.0	0	0	---	0.00	30.199 
23:50	43.5	43.5	43.5	58	29.7	0	0	---	0.00	30.199 
23:55	43.2	43.2	43.2	58	29.4	0	0	---	0.00	30.199 

CoCoRaHS
IN-AL-39
A2 Web Hosting
Creative Commons License
GoDaddy
search engine by freefind advanced

loaded 2018-11-16 11:07:49 • last modified 2010-11-18 10:43:29
Privacy PolicyDisclaimer
• wx.awcolley.com is powered by PmWiki v.2002016 •
• all content (unless otherwise noted) © 2018 A W Colley